Machida, Japan
Current Conditions -  °F | °C
As of 4:08 PM on Tuesday 21 Oct 2014 (Local Time) from RJTY Reporting Station
Broken Clouds Broken Clouds  
Wind Chill: 20°   Ceiling: 1200
Heat Index: 20°   Visibility: 10mi
Dew Point: 18°   Wind: 7mph
Humidity: 88%   Direction: 170°S
Pressure: 29.98"   Gusts: NA
Location:  35.56°N, 139.43°E
Report Text: RJTY 210708Z AUTO 17006KT 10SM BKN012 BKN190 20/18 A2998 RMK AO2
Loading
Personal Weather Stations






























Interactive Weather Map
Tropical Storm Tracking
New forecast layout! Learn more

10-Day Weather Forecast

Advertisements
Track Severe Weather on mobile